Ops Hamburg — A8VS9 — position and weather

sailwx.info

Track history (hours):
 
Tides and Currents Weather Stations Pressure Air Temp Water Temp Dewpoint Dewpoint Depression Visibility Wind Speed Wind Dir Waves Ship Positions

Ops Hamburg

Last reported at 2016-Feb-05 21:33 UTC. Time now 2016-Feb-05 22:11 UTC.
Position N 36°10' W 005°24'.

Length 148 m; draft 7 m.

Type: Ship (hazmat cat A). MMSI: 636092040.

Date/timePositionNaut miles runAvg speedWind from/ knotsBaromVisibWave heightAir tempDewpointWater temp
2016-Feb-05 21:33N 36°10' W 005°24'0 0.0
2016-Feb-05 20:30N 36°10' W 005°24'0 0.0
2016-Feb-05 19:18N 36°10' W 005°24'0 0.0
2016-Feb-05 18:21N 36°10' W 005°24'3 3.5
2016-Feb-05 17:34N 36°08' W 005°25'0 0.1
2016-Feb-05 16:33N 36°08' W 005°25'0 0.1
2016-Feb-05 15:30N 36°08' W 005°25'0 0.1
2016-Feb-05 14:30N 36°08' W 005°25'0 0.1
2016-Feb-05 13:30N 36°08' W 005°25'0 0.1
2016-Feb-05 12:33N 36°08' W 005°25'0 0.0
2016-Feb-05 11:32N 36°08' W 005°25'0 0.0
2016-Feb-05 10:32N 36°08' W 005°25'0 0.0
2016-Feb-05 09:29N 36°08' W 005°25'0 0.0
2016-Feb-05 08:32N 36°08' W 005°25'0 0.0
2016-Feb-05 07:23N 36°08' W 005°25'0 0.0
2016-Feb-05 06:32N 36°08' W 005°25'0 0.0
2016-Feb-05 05:32N 36°08' W 005°25'0 0.0
2016-Feb-05 04:32N 36°08' W 005°25'0 0.0
2016-Feb-05 03:29N 36°08' W 005°25'0 0.0
2016-Feb-05 02:29N 36°08' W 005°25'0 0.0
2016-Feb-05 01:32N 36°08' W 005°25'0 0.2
2016-Feb-05 00:34N 36°08' W 005°25'2 1.7
2016-Feb-04 23:22N 36°10' W 005°26'0 0.1
2016-Feb-04 22:31N 36°10' W 005°26'0 0.0
2016-Feb-04 21:25N 36°10' W 005°26'0 0.0
2016-Feb-04 20:31N 36°10' W 005°26'0 0.0
2016-Feb-04 19:31N 36°10' W 005°26'0 0.0
2016-Feb-04 18:13N 36°10' W 005°26'0 0.0
2016-Feb-04 17:22N 36°10' W 005°26'0 0.0
2016-Feb-04 15:33N 36°10' W 005°26'0 0.1
2016-Feb-04 14:33N 36°10' W 005°26'0 0.1
2016-Feb-04 13:14N 36°10' W 005°26'0 0.0
2016-Feb-04 12:17N 36°10' W 005°26'0 0.0
2016-Feb-04 10:32N 36°10' W 005°26'0 0.0
2016-Feb-04 09:14N 36°10' W 005°26'0 0.1
2016-Feb-04 08:23N 36°10' W 005°26'0 0.1
2016-Feb-04 07:08N 36°10' W 005°26'0 0.0
2016-Feb-04 06:32N 36°10' W 005°26'0 0.1
2016-Feb-04 05:32N 36°10' W 005°26'0 0.0
2016-Feb-04 04:14N 36°10' W 005°26'0 0.1
2016-Feb-04 03:32N 36°10' W 005°26'0 0.0
2016-Feb-04 02:11N 36°10' W 005°26'0 0.0
2016-Feb-04 01:32N 36°10' W 005°26'0 0.0
2016-Feb-04 00:17N 36°10' W 005°26'0 0.0
2016-Feb-03 23:20N 36°10' W 005°26'0 0.0
2016-Feb-03 22:25N 36°10' W 005°26'0 0.0
2016-Feb-03 18:19N 36°10' W 005°26'0 0.0
2016-Feb-03 17:28N 36°10' W 005°26'0 0.1
2016-Feb-03 16:22N 36°10' W 005°25'0 0.0
2016-Feb-03 15:31N 36°10' W 005°25'0 0.0
2016-Feb-03 14:31N 36°10' W 005°25'0 0.0
2016-Feb-03 13:25N 36°10' W 005°25'0 0.0
2016-Feb-03 12:25N 36°10' W 005°25'0 0.1
2016-Feb-03 11:33N 36°10' W 005°25'4 4.2
2016-Feb-03 10:33N 36°06' W 005°23'7 6.7
2016-Feb-03 09:33N 36°03' W 005°16'21011.5
2016-Feb-02 15:24N 35°54' W 000°57'1012.0
2016-Feb-02 14:33N 35°52' W 000°45'9 9.4
2016-Feb-02 13:33N 35°45' W 000°38'2 0.2
2016-Feb-01 23:04N 35°43' W 000°38'0 0.0
2016-Feb-01 21:28N 35°43' W 000°38'  
Track history (hours):
 
Tides and Currents Weather Stations Pressure Air Temp Water Temp Dewpoint Dewpoint Depression Visibility Wind Speed Wind Dir Waves Ship Positions

Ops Hamburg

Last reported at 2016-Feb-05 21:33 UTC. Time now 2016-Feb-05 22:11 UTC.
Position N 36°10' W 005°24'.

Length 148 m; draft 7 m.

Type: Ship (hazmat cat A). MMSI: 636092040.

Date/timePositionNaut miles runAvg speedWind from/ knotsBaromVisibWave heightAir tempDewpointWater temp
2016-Feb-05 21:33N 36°10' W 005°24'0 0.0
2016-Feb-05 20:30N 36°10' W 005°24'0 0.0
2016-Feb-05 19:18N 36°10' W 005°24'0 0.0
2016-Feb-05 18:21N 36°10' W 005°24'3 3.5
2016-Feb-05 17:34N 36°08' W 005°25'0 0.1
2016-Feb-05 16:33N 36°08' W 005°25'0 0.1
2016-Feb-05 15:30N 36°08' W 005°25'0 0.1
2016-Feb-05 14:30N 36°08' W 005°25'0 0.1
2016-Feb-05 13:30N 36°08' W 005°25'0 0.1
2016-Feb-05 12:33N 36°08' W 005°25'0 0.0
2016-Feb-05 11:32N 36°08' W 005°25'0 0.0
2016-Feb-05 10:32N 36°08' W 005°25'0 0.0
2016-Feb-05 09:29N 36°08' W 005°25'0 0.0
2016-Feb-05 08:32N 36°08' W 005°25'0 0.0
2016-Feb-05 07:23N 36°08' W 005°25'0 0.0
2016-Feb-05 06:32N 36°08' W 005°25'0 0.0
2016-Feb-05 05:32N 36°08' W 005°25'0 0.0
2016-Feb-05 04:32N 36°08' W 005°25'0 0.0
2016-Feb-05 03:29N 36°08' W 005°25'0 0.0
2016-Feb-05 02:29N 36°08' W 005°25'0 0.0
2016-Feb-05 01:32N 36°08' W 005°25'0 0.2
2016-Feb-05 00:34N 36°08' W 005°25'2 1.7
2016-Feb-04 23:22N 36°10' W 005°26'0 0.1
2016-Feb-04 22:31N 36°10' W 005°26'0 0.0
2016-Feb-04 21:25N 36°10' W 005°26'0 0.0
2016-Feb-04 20:31N 36°10' W 005°26'0 0.0
2016-Feb-04 19:31N 36°10' W 005°26'0 0.0
2016-Feb-04 18:13N 36°10' W 005°26'0 0.0
2016-Feb-04 17:22N 36°10' W 005°26'0 0.0
2016-Feb-04 15:33N 36°10' W 005°26'0 0.1
2016-Feb-04 14:33N 36°10' W 005°26'0 0.1
2016-Feb-04 13:14N 36°10' W 005°26'0 0.0
2016-Feb-04 12:17N 36°10' W 005°26'0 0.0
2016-Feb-04 10:32N 36°10' W 005°26'0 0.0
2016-Feb-04 09:14N 36°10' W 005°26'0 0.1
2016-Feb-04 08:23N 36°10' W 005°26'0 0.1
2016-Feb-04 07:08N 36°10' W 005°26'0 0.0
2016-Feb-04 06:32N 36°10' W 005°26'0 0.1
2016-Feb-04 05:32N 36°10' W 005°26'0 0.0
2016-Feb-04 04:14N 36°10' W 005°26'0 0.1
2016-Feb-04 03:32N 36°10' W 005°26'0 0.0
2016-Feb-04 02:11N 36°10' W 005°26'0 0.0
2016-Feb-04 01:32N 36°10' W 005°26'0 0.0
2016-Feb-04 00:17N 36°10' W 005°26'0 0.0
2016-Feb-03 23:20N 36°10' W 005°26'0 0.0
2016-Feb-03 22:25N 36°10' W 005°26'0 0.0
2016-Feb-03 18:19N 36°10' W 005°26'0 0.0
2016-Feb-03 17:28N 36°10' W 005°26'0 0.1
2016-Feb-03 16:22N 36°10' W 005°25'0 0.0
2016-Feb-03 15:31N 36°10' W 005°25'0 0.0
2016-Feb-03 14:31N 36°10' W 005°25'0 0.0
2016-Feb-03 13:25N 36°10' W 005°25'0 0.0
2016-Feb-03 12:25N 36°10' W 005°25'0 0.1
2016-Feb-03 11:33N 36°10' W 005°25'4 4.2
2016-Feb-03 10:33N 36°06' W 005°23'7 6.7
2016-Feb-03 09:33N 36°03' W 005°16'21011.5
2016-Feb-02 15:24N 35°54' W 000°57'1012.0
2016-Feb-02 14:33N 35°52' W 000°45'9 9.4
2016-Feb-02 13:33N 35°45' W 000°38'2 0.2
2016-Feb-01 23:04N 35°43' W 000°38'0 0.0
2016-Feb-01 21:28N 35°43' W 000°38'  

Dump ship's entire track history